Time;durP1;ratioP1;P1;durP2;ratioP2;P2;SDS_P1;SDS_P2;PMS_P1;PMS_P2;Temp;Humidity;BMP_temperature;BMP_pressure;BME280_temperature;BME280_humidity;BME280_pressure;Samples;Min_cycle;Max_cycle;Signal;HPM_P1;HPM_P2
2022/08/11 00:00:51;;;;;;;1.70;1.30;;;19.50;45.60;;;15.48;60.99;95814.03;4952075;28;20481;-48
2022/08/11 00:03:20;;;;;;;4.40;1.40;;;19.40;45.70;;;15.40;61.41;95816.56;4952332;28;20117;-48
2022/08/11 00:05:56;;;;;;;3.22;1.27;;;19.30;45.80;;;15.32;61.62;95814.50;4936412;28;20037;-47
2022/08/11 00:08:32;;;;;;;3.45;1.30;;;19.30;46.10;;;15.27;62.24;95805.44;4936359;28;20027;-47
2022/08/11 00:11:09;;;;;;;3.47;1.30;;;19.20;46.30;;;15.22;61.96;95815.44;4951572;28;20149;-50
2022/08/11 00:13:49;;;;;;;2.63;1.67;;;19.10;46.40;;;15.17;62.93;95804.78;4953286;28;20029;-47
2022/08/11 00:16:23;;;;;;;2.33;1.40;;;19.10;46.70;;;15.09;63.69;95802.72;4952322;28;20022;-49
2022/08/11 00:18:56;;;;;;;1.58;1.40;;;19.00;46.80;;;15.02;63.54;95806.56;4951424;28;20039;-49
2022/08/11 00:21:26;;;;;;;2.83;1.85;;;19.00;47.10;;;14.98;63.13;95804.75;4967508;28;20141;-46
2022/08/11 00:24:02;;;;;;;6.00;1.40;;;18.90;47.20;;;14.88;63.63;95800.28;4951716;28;20483;-50
2022/08/11 00:26:35;;;;;;;1.77;1.38;;;18.80;47.50;;;14.80;64.24;95806.28;4939156;28;20038;-48
2022/08/11 00:29:14;;;;;;;4.43;1.58;;;18.70;47.60;;;14.73;64.15;95806.63;4967632;28;20030;-48
2022/08/11 00:32:05;;;;;;;1.48;1.38;;;18.70;47.90;;;14.71;64.64;95805.31;4967398;28;20034;-50
2022/08/11 00:34:37;;;;;;;1.85;1.30;;;18.70;48.60;;;14.69;64.18;95805.59;4952771;28;20034;-49
2022/08/11 00:37:18;;;;;;;1.92;1.10;;;18.60;48.00;;;14.69;64.87;95816.31;4952016;28;20038;-49
2022/08/11 00:39:56;;;;;;;3.38;1.40;;;18.50;48.20;;;14.67;64.68;95806.97;4951621;28;20030;-47
2022/08/11 00:43:17;;;;;;;6.32;1.17;;;18.50;48.40;;;14.60;65.41;95815.34;4935741;28;20038;-48
2022/08/11 00:46:18;;;;;;;3.67;1.30;;;18.50;48.50;;;14.59;65.23;95819.09;4945564;28;20031;-50
2022/08/11 00:49:19;;;;;;;1.77;1.50;;;18.40;48.60;;;14.51;65.53;95809.03;4952848;28;20027;-49
2022/08/11 00:52:31;;;;;;;2.40;1.60;;;18.40;48.80;;;14.46;66.21;95807.16;4950843;28;20567;-50
2022/08/11 00:56:07;;;;;;;1.45;1.17;;;18.30;48.80;;;14.44;65.70;95795.91;4952490;28;20062;-47
2022/08/11 00:59:31;;;;;;;1.90;1.60;;;18.20;48.80;;;14.40;66.31;95794.88;4953028;28;20389;-48
2022/08/11 01:02:36;;;;;;;1.77;1.50;;;18.20;49.10;;;14.39;66.11;95790.59;4952082;28;20389;-48
2022/08/11 01:05:37;;;;;;;1.35;1.25;;;18.20;49.00;;;14.41;65.54;95801.81;4901029;29;20438;-48
2022/08/11 01:09:05;;;;;;;5.90;1.50;;;18.20;49.20;;;14.51;64.31;95807.13;4951320;28;20522;-46
2022/08/11 01:12:27;;;;;;;2.30;1.35;;;18.20;49.30;;;14.63;63.63;95808.59;4950674;28;20035;-46
2022/08/11 01:16:09;;;;;;;3.75;1.52;;;18.20;49.30;;;14.74;64.38;95808.22;4952368;28;20370;-47
2022/08/11 01:19:02;;;;;;;1.88;1.42;;;18.30;49.30;;;14.81;63.69;95795.25;4940843;28;20050;-49
2022/08/11 01:22:22;;;;;;;4.25;1.73;;;18.30;49.30;;;14.81;63.67;95797.94;4951613;28;20509;-46
2022/08/11 01:26:00;;;;;;;4.28;1.70;;;18.40;49.30;;;14.77;63.90;95801.50;4951876;28;20394;-47
2022/08/11 01:29:41;;;;;;;1.30;1.20;;;18.40;49.30;;;14.74;62.83;95805.53;4952463;28;20054;-49
2022/08/11 01:33:12;;;;;;;5.07;1.52;;;18.40;49.10;;;14.83;63.07;95795.00;4951667;28;20490;-45
2022/08/11 01:36:42;;;;;;;2.75;1.52;;;18.40;49.00;;;14.77;63.22;95793.44;4950681;28;20129;-48
2022/08/11 01:39:38;;;;;;;2.63;1.40;;;18.40;49.00;;;14.85;62.79;95792.81;4950779;28;20038;-49
2022/08/11 01:46:45;;;;;;;2.80;1.48;;;18.50;49.00;;;14.92;62.32;95797.84;4952176;29;20022;-45
2022/08/11 01:49:57;;;;;;;3.97;1.30;;;18.50;49.00;;;14.97;62.87;95795.09;4952034;29;20046;-48
2022/08/11 01:53:27;;;;;;;1.52;1.20;;;18.50;48.90;;;15.03;62.59;95792.03;4962115;28;20134;-47
2022/08/11 01:57:04;;;;;;;2.08;1.40;;;18.60;49.00;;;15.08;62.18;95791.19;4919642;29;20027;-46
2022/08/11 02:00:20;;;;;;;3.70;1.33;;;18.60;48.80;;;15.14;62.12;95791.94;4930529;29;20066;-45
2022/08/11 02:03:22;;;;;;;3.15;1.60;;;18.70;48.90;;;15.22;61.74;95793.97;4930611;29;20042;-49
2022/08/11 02:06:55;;;;;;;4.70;1.30;;;18.70;48.90;;;15.27;62.09;95783.19;4930432;29;20126;-44
2022/08/11 02:09:49;;;;;;;2.50;1.67;;;18.80;49.00;;;15.27;62.16;95786.66;4930469;29;20122;-48
2022/08/11 02:13:10;;;;;;;;;;;18.80;48.90;;;15.25;61.88;95791.50;4929540;29;20487;-51
2022/08/11 02:16:03;;;;;;;2.38;1.65;;;18.80;48.30;;;15.25;62.06;95780.75;4930452;29;19907;-47
2022/08/11 02:25:00;;;;;;;2.20;1.38;;;18.90;48.90;;;15.25;62.59;95790.72;4957179;28;20157;-47
2022/08/11 02:28:07;;;;;;;1.77;1.50;;;18.90;48.80;;;15.18;62.52;95783.00;4969148;28;20034;-48
2022/08/11 02:34:20;;;;;;;5.20;1.67;;;18.80;49.00;;;15.03;63.58;95789.38;4970744;28;20025;-49
2022/08/11 02:37:52;;;;;;;4.78;1.60;;;18.80;49.00;;;15.02;62.91;95784.31;4938189;28;20022;-51
2022/08/11 02:44:51;;;;;;;2.10;1.77;;;18.70;49.20;;;14.78;65.50;95777.06;4974001;28;20036;-48
2022/08/11 02:51:32;;;;;;;2.88;1.95;;;18.50;49.60;;;14.51;65.80;95783.00;4973582;28;20112;-47
2022/08/11 02:54:37;;;;;;;5.10;1.77;;;18.50;49.80;;;14.42;66.18;95790.03;4974290;28;20038;-48
2022/08/11 02:57:54;;;;;;;4.13;1.80;;;18.30;49.80;;;14.42;66.12;95784.69;4957889;28;20588;-47
2022/08/11 03:00:43;;;;;;;1.90;1.67;;;18.30;50.00;;;14.40;65.61;95788.72;4958012;28;20045;-46
2022/08/11 03:03:45;;;;;;;5.30;1.90;;;18.20;50.10;;;14.34;66.01;95788.75;4958672;28;20030;-48
2022/08/11 03:06:48;;;;;;;3.38;1.80;;;18.20;50.20;;;14.32;66.05;95780.22;4940525;28;20545;-47
2022/08/11 03:10:10;;;;;;;3.78;1.70;;;18.20;50.40;;;14.30;66.89;95789.63;4957526;28;20032;-45
2022/08/11 03:17:26;;;;;;;5.57;2.00;;;18.10;50.50;;;14.06;66.37;95785.00;4895011;29;20064;-48
2022/08/11 03:20:27;;;;;;;3.60;1.77;;;18.00;50.60;;;13.89;66.90;95781.94;4973337;28;20022;-50
2022/08/11 03:24:08;;;;;;;4.13;1.80;;;17.90;50.70;;;13.74;68.66;95790.09;4973644;28;20038;-50
2022/08/11 03:27:21;;;;;;;4.07;1.67;;;17.80;51.00;;;13.61;69.49;95775.47;4973590;28;20164;-47
2022/08/11 03:30:30;;;;;;;3.70;2.00;;;17.70;51.10;;;13.53;69.73;95779.53;4942924;28;20188;-48
2022/08/11 03:37:47;;;;;;;3.65;2.00;;;17.50;51.50;;;13.52;69.47;95777.94;4992884;28;20052;-46
2022/08/11 03:43:52;;;;;;;2.80;1.60;;;17.50;51.80;;;13.59;69.00;95794.47;4992680;28;20045;-45
2022/08/11 03:46:50;;;;;;;2.72;1.83;;;17.50;51.90;;;13.61;69.15;95786.19;4992753;28;20022;-46
2022/08/11 03:50:10;;;;;;;6.88;2.00;;;17.50;52.00;;;13.55;68.77;95782.72;4965919;28;20045;-46
2022/08/11 03:53:29;;;;;;;2.85;2.00;;;17.50;51.90;;;13.46;69.40;95787.06;4976778;28;20129;-49
2022/08/11 03:56:38;;;;;;;2.67;1.63;;;17.40;52.00;;;13.37;69.85;95786.06;4952074;28;20035;-47
2022/08/11 04:00:08;;;;;;;3.28;1.98;;;17.40;52.20;;;13.26;70.94;95784.53;4952742;28;20425;-49
2022/08/11 04:03:38;;;;;;;2.17;1.60;;;17.30;52.20;;;13.16;70.70;95794.16;4952336;28;20057;-45
2022/08/11 04:06:49;;;;;;;4.00;2.00;;;17.20;52.20;;;13.08;71.07;95784.03;4968575;28;20073;-45
2022/08/11 04:10:10;;;;;;;3.45;1.88;;;17.20;52.50;;;13.07;71.36;95795.03;4953468;28;20118;-46
2022/08/11 04:13:38;;;;;;;5.93;2.20;;;17.10;52.70;;;12.99;71.79;95792.91;4953451;28;20022;-47
2022/08/11 04:16:43;;;;;;;2.97;2.30;;;17.00;52.70;;;12.93;72.93;95792.13;4944004;28;20039;-47
2022/08/11 04:20:17;;;;;;;3.25;2.15;;;17.00;53.00;;;12.89;73.60;95793.75;4952949;28;20519;-44
2022/08/11 04:23:39;;;;;;;;;;;16.90;53.10;;;12.87;72.93;95787.88;4953678;28;20041;-45
2022/08/11 04:26:47;;;;;;;3.65;2.38;;;16.90;52.60;;;12.90;72.73;95792.66;4953106;28;19906;-47
2022/08/11 04:29:52;;;;;;;2.85;1.95;;;16.90;53.00;;;12.94;72.68;95791.03;4952946;28;20042;-51
2022/08/11 04:33:33;;;;;;;6.07;2.33;;;16.90;53.30;;;12.97;72.81;95787.81;4951580;28;20381;-47
2022/08/11 04:40:39;;;;;;;2.30;2.10;;;17.00;53.50;;;13.08;71.58;95802.75;4952008;28;20505;-47
2022/08/11 04:44:19;;;;;;;5.05;2.10;;;17.00;53.50;;;13.12;71.67;95798.44;4953027;28;20477;-46
2022/08/11 05:02:45;;;;;;;3.22;1.98;;;17.30;53.30;;;13.55;70.93;95816.72;4938509;28;20037;-49
2022/08/11 05:06:29;;;;;;;3.88;2.25;;;17.40;53.40;;;14.07;69.91;95810.72;4952131;28;20023;-47
2022/08/11 05:09:40;;;;;;;2.67;1.85;;;17.70;53.30;;;14.54;68.06;95813.78;4952322;28;20049;-52
2022/08/11 05:12:34;;;;;;;3.45;1.88;;;17.90;53.10;;;14.85;66.92;95813.47;4951017;28;20034;-48
2022/08/11 05:57:34;;;;;;;2.53;1.98;;;22.60;47.50;;;19.24;53.07;95833.72;4944655;28;20049;-51
2022/08/11 06:00:09;;;;;;;2.42;2.10;;;22.80;46.90;;;19.41;53.12;95837.25;4955589;28;20713;-50
2022/08/11 06:03:01;;;;;;;2.92;2.05;;;23.10;46.60;;;19.60;52.22;95844.28;4973675;28;20464;-54
2022/08/11 06:05:36;;;;;;;6.85;2.30;;;23.30;46.10;;;19.90;51.42;95839.09;4989764;28;20022;-50
2022/08/11 06:08:11;;;;;;;2.88;2.42;;;23.60;45.60;;;20.22;50.53;95841.31;4973257;28;20032;-50
2022/08/11 06:10:42;;;;;;;5.05;2.22;;;23.80;45.10;;;20.32;49.95;95835.56;4989081;28;20044;-51
2022/08/11 06:13:17;;;;;;;6.53;2.40;;;24.10;44.60;;;20.49;49.97;95842.06;4989150;28;20455;-52
2022/08/11 06:16:01;;;;;;;3.03;2.70;;;24.30;44.20;;;20.68;49.54;95844.44;4957256;28;20288;-53
2022/08/11 06:18:30;;;;;;;3.47;2.13;;;24.50;43.80;;;20.86;48.79;95840.56;4975772;28;20350;-55
2022/08/11 06:21:01;;;;;;;5.30;2.88;;;24.70;43.30;;;21.08;48.33;95844.16;4976810;28;20486;-50
2022/08/11 06:23:33;;;;;;;3.15;2.38;;;24.90;43.00;;;21.24;47.64;95845.97;4976831;28;20491;-51
2022/08/11 06:26:12;;;;;;;4.60;2.72;;;25.10;42.50;;;21.42;47.51;95849.44;4976901;28;20040;-52
2022/08/11 06:28:44;;;;;;;3.45;2.47;;;25.30;42.40;;;21.46;46.96;95847.66;4976764;28;20045;-47
2022/08/11 06:31:24;;;;;;;4.93;2.63;;;25.50;41.80;;;21.41;46.83;95853.28;4976091;28;20033;-54
2022/08/11 06:34:00;;;;;;;3.40;2.13;;;25.70;41.40;;;21.53;46.93;95858.00;4976893;28;20108;-54
2022/08/11 06:37:45;;;;;;;6.10;2.85;;;25.90;41.20;;;21.52;46.70;95853.69;4993805;28;20053;-53
2022/08/11 06:40:41;;;;;;;4.65;2.47;;;26.10;40.80;;;21.38;47.08;95845.78;4976626;28;20041;-49
2022/08/11 06:43:20;;;;;;;3.03;2.63;;;26.30;40.30;;;21.41;46.62;95845.13;4992461;28;20448;-49
2022/08/11 06:46:08;;;;;;;4.15;2.75;;;26.40;39.90;;;21.54;46.85;95851.44;4976678;28;20021;-54
2022/08/11 06:48:40;;;;;;;4.25;2.65;;;26.50;39.60;;;21.61;46.53;95840.06;4976665;28;20076;-50
2022/08/11 06:51:16;;;;;;;5.30;2.30;;;26.60;39.30;;;21.64;46.15;95844.84;4976460;28;20041;-52
2022/08/11 06:53:55;;;;;;;4.80;2.60;;;26.80;39.00;;;21.62;46.22;95839.75;4982174;28;20382;-53
2022/08/11 07:02:27;;;;;;;3.53;2.88;;;27.10;38.30;;;21.93;45.69;95846.69;4968142;28;20569;-51
2022/08/11 07:05:54;;;;;;;4.78;2.85;;;27.20;38.00;;;21.99;45.51;95848.09;4976289;28;20105;-51
2022/08/11 07:15:40;;;;;;;7.72;2.78;;;27.70;37.30;;;22.20;45.01;95844.63;4992753;28;20044;-53
2022/08/11 07:30:12;;;;;;;8.00;3.20;;;28.40;36.00;;;22.86;43.92;95853.53;4992403;28;20550;-53
2022/08/11 07:32:53;;;;;;;7.35;3.13;;;28.50;35.80;;;23.20;43.21;95848.84;4991739;28;20580;-49
2022/08/11 07:36:07;;;;;;;4.65;3.13;;;28.70;35.60;;;23.47;42.46;95852.00;4975341;28;20029;-54
2022/08/11 07:38:49;;;;;;;5.13;2.92;;;29.00;35.50;;;23.67;43.21;95844.88;4962190;28;20029;-48
2022/08/11 07:41:22;;;;;;;16.15;3.40;;;29.20;35.10;;;23.96;41.84;95844.59;4991058;28;20071;-50
2022/08/11 07:44:07;;;;;;;4.57;2.97;;;29.50;34.90;;;24.04;41.95;95844.81;4976255;28;20030;-49
2022/08/11 07:52:36;;;;;;;5.75;3.20;;;30.20;33.90;;;24.67;40.83;95848.56;4976474;28;20524;-52
2022/08/11 07:55:14;;;;;;;4.45;3.28;;;30.40;34.40;;;24.79;40.49;95855.06;4952465;28;20117;-53
2022/08/11 08:20:15;;;;;;;4.55;3.50;;;31.40;31.70;;;24.98;40.01;95843.50;4953548;28;20041;-55
2022/08/11 08:22:42;;;;;;;5.90;3.58;;;31.50;31.50;;;25.34;40.08;95850.66;4965931;28;20030;-54
2022/08/11 08:25:10;;;;;;;5.47;3.45;;;31.60;31.40;;;25.70;39.01;95851.47;4953284;28;20406;-51
2022/08/11 08:27:42;;;;;;;6.00;3.30;;;31.80;31.40;;;25.84;38.85;95849.88;4939748;28;20031;-56
2022/08/11 08:32:57;;;;;;;3.85;3.38;;;32.20;30.90;;;26.40;38.03;95839.72;4952438;28;20177;-54
2022/08/11 08:35:24;;;;;;;5.30;3.22;;;32.40;30.70;;;26.48;38.24;95844.16;4963680;28;20074;-55
2022/08/11 08:37:51;;;;;;;5.20;4.00;;;32.60;30.60;;;26.72;37.19;95846.59;4950786;28;20411;-53
2022/08/11 08:40:19;;;;;;;3.75;3.03;;;32.70;30.20;;;26.76;36.66;95846.66;4930638;28;20069;-51
2022/08/11 08:42:56;;;;;;;6.72;4.13;;;32.90;29.90;;;26.46;38.02;95846.47;4953429;28;20030;-54
2022/08/11 08:45:26;;;;;;;4.30;3.45;;;33.10;29.90;;;26.75;37.40;95850.56;4963147;28;20114;-55
2022/08/11 08:48:13;;;;;;;3.80;3.03;;;33.20;29.70;;;27.11;36.63;95852.00;4932976;28;20038;-54
2022/08/11 08:53:50;;;;;;;5.60;3.78;;;33.60;29.60;;;27.42;36.84;95848.22;4963610;28;20046;-53
2022/08/11 08:56:19;;;;;;;5.22;3.20;;;33.70;29.40;;;27.88;35.71;95855.56;4966153;28;20213;-53
2022/08/11 08:58:49;;;;;;;6.47;3.75;;;33.90;29.30;;;28.08;35.49;95850.75;4949979;28;20034;-54
2022/08/11 09:01:21;;;;;;;5.10;3.58;;;34.10;29.10;;;28.13;35.00;95848.47;4938608;28;20037;-53
2022/08/11 09:03:50;;;;;;;7.20;3.80;;;34.30;28.90;;;28.21;35.34;95852.09;4967725;28;20177;-55
2022/08/11 09:06:17;;;;;;;4.10;3.72;;;34.50;28.80;;;28.26;34.76;95848.25;4949103;28;20084;-53
2022/08/11 09:08:46;;;;;;;7.25;4.10;;;34.60;28.60;;;28.31;34.99;95850.66;4950925;28;20022;-50
2022/08/11 09:14:11;;;;;;;4.75;4.07;;;34.80;28.30;;;28.81;33.73;95852.03;4951595;28;20034;-52
2022/08/11 09:16:43;;;;;;;6.05;3.85;;;35.00;28.10;;;28.83;33.88;95841.50;4951455;28;20027;-51
2022/08/11 09:19:16;;;;;;;4.47;4.07;;;35.20;27.90;;;28.63;34.53;95844.78;4953580;28;20026;-51
2022/08/11 09:26:58;;;;;;;6.25;4.15;;;35.30;27.80;;;28.57;34.21;95847.06;4950071;28;20137;-55
2022/08/11 09:27:27;;;;;;;5.65;3.90;;;35.40;27.50;;;28.65;33.77;95846.00;4956261;28;20041;-55
2022/08/11 09:29:55;;;;;;;9.80;4.03;;;35.40;27.40;;;28.59;33.71;95842.78;4932090;28;20042;-54
2022/08/11 09:32:23;;;;;;;6.97;4.32;;;35.50;27.20;;;28.69;34.26;95843.28;4951373;28;20026;-54
2022/08/11 09:34:52;;;;;;;7.90;4.05;;;35.50;27.20;;;28.80;34.51;95850.47;4953316;28;20254;-55
2022/08/11 09:40:30;;;;;;;7.95;3.72;;;35.70;27.30;;;29.51;33.23;95847.56;4912014;28;20130;-52
2022/08/11 09:45:58;;;;;;;4.70;3.83;;;36.00;27.00;;;29.45;32.44;95846.34;4946037;29;20057;-53
2022/08/11 09:48:44;;;;;;;9.82;3.90;;;36.10;26.80;;;29.81;32.80;95843.13;4968585;28;20022;-54
2022/08/11 09:51:20;;;;;;;4.53;4.13;;;36.30;26.80;;;30.04;31.96;95846.38;4985964;28;20030;-56
2022/08/11 09:53:49;;;;;;;4.90;3.88;;;36.40;26.60;;;29.99;32.26;95838.50;4951641;28;20113;-56
2022/08/11 09:59:10;;;;;;;4.22;3.83;;;36.70;26.40;;;30.36;32.24;95843.00;4974394;28;20029;-53
2022/08/11 10:02:00;;;;;;;7.28;3.90;;;36.80;26.30;;;30.49;31.01;95841.47;4971415;28;20401;-54
2022/08/11 10:04:45;;;;;;;7.20;3.63;;;36.90;26.20;;;30.38;30.99;95841.47;4953923;28;20083;-54
2022/08/11 10:07:15;;;;;;;9.32;3.70;;;37.00;26.00;;;30.12;31.67;95831.50;4955844;28;20034;-55
2022/08/11 10:10:05;;;;;;;5.20;3.88;;;37.10;25.90;;;30.36;31.44;95830.06;4939080;28;20038;-53
2022/08/11 10:13:09;;;;;;;5.30;4.10;;;37.00;25.80;;;30.70;31.23;95827.03;4950378;28;20021;-50
2022/08/11 10:15:41;;;;;;;5.03;3.63;;;37.20;25.80;;;31.03;30.51;95830.66;4973783;28;20080;-51
2022/08/11 10:18:51;;;;;;;8.48;3.40;;;37.40;25.60;;;31.31;29.93;95827.91;4985987;28;20145;-54
2022/08/11 10:26:49;;;;;;;6.30;4.22;;;37.50;25.50;;;30.86;31.31;95823.94;4962460;28;20120;-48
2022/08/11 10:27:27;;;;;;;7.25;4.00;;;37.80;25.40;;;30.92;30.00;95827.09;4959662;28;20049;-53
2022/08/11 10:35:30;;;;;;;3.90;3.58;;;37.90;25.00;;;29.98;32.76;95820.44;4973858;28;20064;-48
2022/08/11 10:37:59;;;;;;;;;;;37.70;25.10;;;30.36;31.88;95818.28;4970597;28;20038;-52
2022/08/11 10:40:27;;;;;;;5.60;3.78;;;37.60;25.30;;;30.58;30.89;95822.66;4975761;28;19912;-54
2022/08/11 10:43:14;;;;;;;8.10;3.70;;;37.80;25.30;;;31.13;31.18;95818.09;4953187;28;20030;-50
2022/08/11 10:48:37;;;;;;;7.25;4.05;;;37.90;25.10;;;30.72;31.28;95813.69;4962620;28;20080;-56
2022/08/11 10:51:16;;;;;;;6.43;3.58;;;37.90;25.00;;;31.05;30.54;95812.56;4953233;28;20489;-48
2022/08/11 10:59:34;;;;;;;3.85;3.53;;;38.00;24.90;;;31.18;31.58;95806.69;4956979;28;20041;-47
2022/08/11 11:02:00;;;;;;;4.80;3.47;;;38.10;25.10;;;31.06;30.76;95807.88;4961973;28;20025;-46
2022/08/11 11:04:52;;;;;;;6.15;4.30;;;38.20;24.90;;;30.91;31.29;95806.28;4961681;28;20116;-47
2022/08/11 11:07:49;;;;;;;5.93;3.78;;;38.20;24.90;;;30.92;30.70;95800.38;4970970;28;20034;-47
2022/08/11 11:10:15;;;;;;;5.63;3.80;;;38.30;24.90;;;30.57;31.66;95801.09;4969733;28;20118;-47
2022/08/11 11:18:36;;;;;;;5.55;3.80;;;38.20;24.80;;;31.23;30.59;95801.56;4986543;28;20020;-47
2022/08/11 11:21:17;;;;;;;4.18;3.78;;;38.30;24.70;;;31.04;31.26;95810.22;4959248;28;20062;-48
2022/08/11 11:24:37;;;;;;;6.35;4.35;;;38.40;24.80;;;30.57;31.65;95812.06;4942163;28;20058;-47
2022/08/11 11:28:03;;;;;;;6.57;4.10;;;38.40;24.80;;;30.58;31.36;95808.16;4973304;28;20504;-47
2022/08/11 11:31:01;;;;;;;5.25;4.38;;;38.30;24.70;;;30.62;32.23;95811.72;4972210;28;20037;-50
2022/08/11 11:34:33;;;;;;;6.28;4.45;;;38.30;24.90;;;30.76;31.60;95800.72;4972286;28;20057;-49
2022/08/11 11:37:02;;;;;;;5.45;4.05;;;38.30;25.00;;;30.63;32.36;95807.78;4972433;28;20030;-51
2022/08/11 11:39:35;;;;;;;5.72;4.43;;;38.30;24.90;;;30.59;31.75;95802.28;4972319;28;20065;-47
2022/08/11 11:42:12;;;;;;;5.57;3.97;;;38.30;24.90;;;30.79;32.26;95793.69;4955996;28;20061;-50
2022/08/11 11:44:44;;;;;;;5.40;3.83;;;38.30;24.90;;;30.77;32.33;95785.81;4972191;28;20373;-49
2022/08/11 11:47:28;;;;;;;4.45;3.90;;;38.30;24.90;;;31.16;31.39;95792.56;4972588;28;20046;-50
2022/08/11 11:49:59;;;;;;;4.10;3.80;;;38.30;24.80;;;31.60;31.14;95789.38;4957796;28;20045;-49
2022/08/11 11:52:42;;;;;;;5.00;3.58;;;38.60;25.00;;;31.64;30.21;95795.66;4955859;28;20133;-49
2022/08/11 11:55:10;;;;;;;7.18;3.75;;;38.70;24.70;;;30.62;31.54;95790.50;4972081;28;20104;-53
2022/08/11 12:03:10;;;;;;;4.13;3.78;;;38.80;24.60;;;31.53;30.14;95772.91;4974944;28;20082;-49
2022/08/11 12:05:40;;;;;;;5.15;3.95;;;39.00;24.50;;;31.47;30.89;95774.47;4961325;28;20121;-47
2022/08/11 12:08:16;;;;;;;6.10;4.10;;;39.10;24.40;;;31.60;29.95;95764.63;4956043;28;20033;-50
2022/08/11 12:13:52;;;;;;;4.57;3.65;;;39.20;24.20;;;32.23;29.41;95778.59;4964096;28;20413;-47
2022/08/11 12:16:22;;;;;;;5.78;4.10;;;39.50;24.20;;;31.70;29.54;95772.06;4954466;28;20390;-47
2022/08/11 12:19:00;;;;;;;4.40;4.00;;;39.50;24.00;;;31.84;29.76;95764.94;4970360;28;20030;-52
2022/08/11 12:21:31;;;;;;;4.45;3.65;;;39.50;23.90;;;31.84;29.19;95762.97;4961544;28;20053;-47
2022/08/11 12:29:36;;;;;;;6.45;3.45;;;39.60;23.70;;;32.06;29.57;95760.16;4958232;28;20567;-47
2022/08/11 12:32:10;;;;;;;4.10;3.72;;;39.60;23.60;;;32.33;29.79;95746.66;4949729;28;20053;-48
2022/08/11 12:34:40;;;;;;;3.88;3.40;;;39.80;23.90;;;31.42;29.66;95742.63;4949092;28;20113;-49
2022/08/11 12:37:12;;;;;;;5.45;3.58;;;39.80;23.60;;;31.71;29.75;95745.31;4921128;28;20021;-50
2022/08/11 12:45:33;;;;;;;4.07;3.70;;;39.80;23.40;;;32.09;29.48;95729.06;4963719;28;20115;-48
2022/08/11 12:54:19;;;;;;;4.18;3.60;;;40.00;23.50;;;32.31;28.56;95721.47;4977140;28;20524;-51
2022/08/11 13:05:55;;;;;;;4.40;4.00;;;40.30;23.00;;;32.90;28.58;95715.97;4990083;28;20308;-51
2022/08/11 13:08:28;;;;;;;3.90;3.60;;;40.40;23.00;;;33.11;28.37;95717.78;4990102;28;20045;-49
2022/08/11 13:13:51;;;;;;;4.72;3.72;;;40.70;23.00;;;33.30;27.49;95711.69;4990188;28;20100;-52
2022/08/11 13:16:19;;;;;;;6.35;3.92;;;40.90;22.90;;;33.34;27.55;95708.88;4968980;28;20033;-49
2022/08/11 13:18:49;;;;;;;4.07;3.78;;;41.00;22.80;;;33.57;27.46;95702.78;4947714;28;20500;-50
2022/08/11 13:21:18;;;;;;;5.60;4.20;;;41.10;22.80;;;33.23;27.32;95706.25;4963036;28;20492;-50
2022/08/11 13:23:54;;;;;;;5.13;4.40;;;41.20;22.50;;;33.28;27.48;95705.00;4953627;28;20447;-48
2022/08/11 13:26:24;;;;;;;4.68;3.58;;;41.20;22.50;;;33.46;27.50;95696.56;4967136;28;20045;-48
2022/08/11 13:28:52;;;;;;;3.78;3.53;;;41.20;22.50;;;33.68;27.03;95697.13;4936664;28;20026;-48
2022/08/11 13:31:18;;;;;;;4.55;4.25;;;41.20;22.40;;;33.45;27.58;95698.53;4952632;28;20389;-53
2022/08/11 13:33:50;;;;;;;4.22;3.83;;;41.20;22.40;;;33.28;27.73;95689.25;4953987;28;20061;-48
2022/08/11 13:36:27;;;;;;;4.78;4.32;;;41.20;22.40;;;33.13;27.75;95685.84;4988681;28;20536;-48
2022/08/11 13:38:57;;;;;;;4.25;3.88;;;41.10;22.30;;;32.92;27.79;95692.31;4988738;28;20022;-47
2022/08/11 13:41:47;;;;;;;6.10;4.15;;;41.10;22.30;;;32.79;28.00;95682.97;4988938;28;20080;-49
2022/08/11 13:44:17;;;;;;;6.38;4.00;;;41.00;22.20;;;32.89;28.19;95686.81;4953329;28;20121;-50
2022/08/11 13:46:45;;;;;;;4.93;4.10;;;41.00;22.40;;;33.16;27.26;95685.03;4936315;28;20515;-52
2022/08/11 13:49:18;;;;;;;4.43;3.90;;;41.00;22.30;;;33.10;27.96;95685.88;4967759;28;20088;-51
2022/08/11 13:51:44;;;;;;;4.30;3.97;;;40.90;22.30;;;33.35;27.49;95674.59;4970053;28;20112;-49
2022/08/11 13:54:20;;;;;;;4.75;4.25;;;40.90;22.40;;;32.74;28.22;95679.84;4952479;28;20026;-49
2022/08/11 13:57:02;;;;;;;4.45;4.03;;;41.00;22.50;;;32.89;28.55;95673.81;4940006;28;20358;-52
2022/08/11 13:59:30;;;;;;;4.55;4.15;;;41.00;22.40;;;32.76;27.66;95681.03;4952369;28;20033;-49
2022/08/11 14:02:07;;;;;;;4.82;4.30;;;41.00;22.30;;;32.02;28.37;95672.81;4934971;28;20452;-51
2022/08/11 14:04:51;;;;;;;5.47;4.53;;;41.00;22.10;;;32.54;28.80;95660.31;4965725;28;20030;-51
2022/08/11 14:07:26;;;;;;;5.00;4.13;;;40.90;22.20;;;32.60;28.40;95661.47;4935965;28;20018;-49
2022/08/11 14:10:00;;;;;;;6.03;4.45;;;41.00;22.30;;;32.73;28.55;95651.50;4951848;28;20079;-47
2022/08/11 14:15:34;;;;;;;5.95;4.20;;;41.10;22.20;;;32.61;28.76;95654.75;4967276;28;20504;-47
2022/08/11 14:18:16;;;;;;;5.10;4.50;;;41.20;22.30;;;32.52;28.28;95662.69;4958433;28;20022;-47
2022/08/11 14:23:46;;;;;;;4.45;4.05;;;41.20;22.10;;;32.13;29.22;95656.25;4950970;28;20544;-48
2022/08/11 14:26:22;;;;;;;5.82;4.75;;;41.20;22.20;;;32.20;28.74;95655.41;4950176;28;20037;-47
2022/08/11 14:29:03;;;;;;;5.03;4.57;;;41.30;22.10;;;32.45;28.34;95644.25;4954071;28;20036;-49
2022/08/11 14:31:36;;;;;;;4.45;4.15;;;41.40;21.90;;;32.84;27.62;95646.66;4968865;28;20401;-47
2022/08/11 14:34:09;;;;;;;4.93;4.53;;;41.60;21.80;;;33.33;27.67;95652.13;4953135;28;20049;-49
2022/08/11 14:36:44;;;;;;;5.22;4.75;;;41.80;21.90;;;33.38;26.98;95644.19;4952353;28;20023;-48
2022/08/11 14:39:34;;;;;;;6.18;4.00;;;42.10;21.60;;;33.48;27.75;95641.72;4969445;28;20113;-46
2022/08/11 14:47:56;;;;;;;5.70;4.43;;;42.80;21.10;;;33.60;27.16;95638.44;4964439;28;20024;-51
2022/08/11 14:50:28;;;;;;;4.70;4.30;;;43.00;21.00;;;33.65;26.83;95637.97;4956954;28;20456;-50
2022/08/11 14:53:10;;;;;;;5.90;4.35;;;43.20;20.80;;;33.69;26.53;95633.22;4969495;28;20096;-51
2022/08/11 14:58:32;;;;;;;5.05;4.53;;;43.60;20.40;;;33.80;25.79;95633.84;4956590;28;20041;-50
2022/08/11 15:03:05;;;;;;;4.95;4.45;;;43.80;20.20;;;33.50;26.30;95633.81;4972746;28;20034;-51
2022/08/11 15:03:58;;;;;;;7.35;4.10;;;44.00;20.00;;;33.07;27.53;95626.78;4958963;28;20379;-52
2022/08/11 15:06:27;;;;;;;5.65;5.05;;;44.20;19.90;;;33.16;27.47;95631.81;4952353;28;20076;-48
2022/08/11 15:08:54;;;;;;;5.43;4.93;;;44.40;19.80;;;33.88;27.09;95628.22;4974467;28;20149;-52
2022/08/11 15:17:06;;;;;;;5.25;4.43;;;45.10;19.50;;;33.33;26.88;95632.81;4950216;28;20065;-51
2022/08/11 15:17:07;;;;;;;5.32;4.93;;;45.50;19.20;;;33.72;26.23;95632.38;4954634;28;20050;-50
2022/08/11 15:24:18;;;;;;;5.40;5.03;;;45.90;18.80;;;33.86;26.25;95632.19;4953587;28;20398;-49
2022/08/11 15:25:11;;;;;;;6.28;5.68;;;47.30;18.20;;;34.07;25.57;95624.84;4956096;28;20054;-48
2022/08/11 15:39:06;;;;;;;7.47;6.93;;;49.40;16.80;;;34.64;24.31;95612.91;4946906;28;20035;-48
2022/08/11 15:47:56;;;;;;;8.10;7.45;;;50.30;16.20;;;35.87;23.37;95612.97;4952789;28;20057;-49
2022/08/11 15:50:29;;;;;;;8.48;7.88;;;50.50;16.10;;;36.01;23.73;95603.56;4952611;28;20042;-51
2022/08/11 15:53:10;;;;;;;7.22;6.63;;;50.80;16.10;;;35.83;23.98;95609.50;4952614;28;20375;-47
2022/08/11 15:55:38;;;;;;;8.27;7.63;;;50.70;16.00;;;35.40;23.93;95598.50;4952429;28;20405;-49
2022/08/11 16:04:12;;;;;;;6.05;5.55;;;50.20;15.70;;;35.62;23.86;95607.19;4946190;28;20033;-50
2022/08/11 16:07:18;;;;;;;5.60;5.20;;;50.00;16.00;;;35.06;24.58;95591.25;4950023;28;20438;-50
2022/08/11 16:10:10;;;;;;;5.60;5.10;;;49.70;16.10;;;34.21;25.27;95594.22;4951350;28;20043;-51
2022/08/11 16:16:13;;;;;;;5.30;4.90;;;49.30;16.10;;;33.96;25.81;95600.06;4951393;28;20027;-48
2022/08/11 16:18:55;;;;;;;7.25;5.43;;;48.90;16.20;;;33.92;25.86;95587.53;4965027;28;20037;-50
2022/08/11 16:21:34;;;;;;;6.30;5.85;;;49.00;16.20;;;34.01;25.20;95590.56;4951074;28;20026;-52